createdAt,value
2023-06-18T00:00:57.256Z,94195.69
2023-06-18T00:03:23.966Z,94196.84
2023-06-18T00:05:50.996Z,94193.66
2023-06-18T00:08:17.600Z,94197.13
2023-06-18T00:10:44.278Z,94192.13
2023-06-18T00:13:13.242Z,94189.44
2023-06-18T00:15:39.851Z,94190.56
2023-06-18T00:18:06.936Z,94194.44
2023-06-18T00:20:36.546Z,94193.81
2023-06-18T00:23:03.407Z,94194.66
2023-06-18T00:25:30.008Z,94189.66
2023-06-18T00:27:56.644Z,94192.63
2023-06-18T00:30:23.468Z,94181.97
2023-06-18T00:32:52.492Z,94181.66
2023-06-18T00:35:19.663Z,94176.25
2023-06-18T00:37:46.401Z,94179.91
2023-06-18T00:40:14.401Z,94176.00
2023-06-18T00:42:41.218Z,94180.75
2023-06-18T00:45:13.176Z,94177.66
2023-06-18T00:47:45.669Z,94178.06
2023-06-18T00:50:17.306Z,94172.28
2023-06-18T00:52:48.901Z,94177.41
2023-06-18T00:55:19.091Z,94178.53
2023-06-18T00:57:50.806Z,94176.09
2023-06-18T01:00:20.923Z,94172.78
2023-06-18T01:02:51.119Z,94162.63
2023-06-18T01:05:21.496Z,94167.34
2023-06-18T01:07:52.157Z,94177.53
2023-06-18T01:10:21.798Z,94172.16
2023-06-18T01:12:49.849Z,94169.53
2023-06-18T01:15:19.205Z,94173.97
2023-06-18T01:17:50.083Z,94173.53
2023-06-18T01:20:20.067Z,94176.09
2023-06-18T01:22:59.117Z,94173.28
2023-06-18T01:25:27.301Z,94170.72
2023-06-18T01:27:55.142Z,94169.47
2023-06-18T01:30:22.650Z,94166.72
2023-06-18T01:32:55.563Z,94154.50
2023-06-18T01:35:23.707Z,94160.44
2023-06-18T01:38:02.513Z,94164.47
2023-06-18T01:40:55.316Z,94151.91
2023-06-18T01:43:31.709Z,94158.59
2023-06-18T01:46:03.338Z,94155.25
2023-06-18T01:48:38.936Z,94150.53
2023-06-18T01:51:07.164Z,94156.59
2023-06-18T01:53:36.157Z,94152.66
2023-06-18T01:56:03.467Z,94151.53
2023-06-18T01:58:34.746Z,94156.28
2023-06-18T02:01:02.138Z,94156.66
2023-06-18T02:03:28.882Z,94153.16
2023-06-18T02:05:56.102Z,94154.28
2023-06-18T02:08:22.710Z,94152.97
2023-06-18T02:10:51.801Z,94151.69
2023-06-18T02:13:19.124Z,94158.03
2023-06-18T02:15:45.989Z,94156.06
2023-06-18T02:18:13.159Z,94158.94
2023-06-18T02:20:40.836Z,94157.31
2023-06-18T02:23:07.515Z,94164.72
2023-06-18T02:25:35.082Z,94158.31
2023-06-18T02:28:03.126Z,94157.91
2023-06-18T02:30:30.564Z,94161.00
2023-06-18T02:33:07.610Z,94159.94
2023-06-18T02:35:39.437Z,94160.78
2023-06-18T02:38:06.024Z,94161.91
2023-06-18T02:40:32.653Z,94156.00
2023-06-18T02:42:59.576Z,94156.78
2023-06-18T02:45:27.233Z,94155.16
2023-06-18T02:47:54.172Z,94153.50
2023-06-18T02:50:21.946Z,94145.50
2023-06-18T02:52:49.307Z,94144.75
2023-06-18T02:55:16.778Z,94140.06
2023-06-18T02:57:44.807Z,94134.94
2023-06-18T03:00:13.469Z,94138.19
2023-06-18T03:02:43.548Z,94141.34
2023-06-18T03:05:15.371Z,94143.63
2023-06-18T03:07:43.160Z,94136.50
2023-06-18T03:10:11.409Z,94136.25
2023-06-18T03:12:38.461Z,94146.63
2023-06-18T03:15:19.339Z,94142.78
2023-06-18T03:17:46.084Z,94142.72
2023-06-18T03:20:13.434Z,94137.22
2023-06-18T03:22:40.464Z,94142.00
2023-06-18T03:25:07.713Z,94141.66
2023-06-18T03:27:34.567Z,94136.50
2023-06-18T03:30:04.830Z,94146.56
2023-06-18T03:32:34.188Z,94134.03
2023-06-18T03:35:02.088Z,94138.31
2023-06-18T03:37:29.151Z,94137.31
2023-06-18T03:39:55.747Z,94140.72
2023-06-18T03:42:22.837Z,94139.50
2023-06-18T03:44:49.439Z,94137.31
2023-06-18T03:47:18.288Z,94142.00
2023-06-18T03:49:44.893Z,94142.69
2023-06-18T03:52:12.367Z,94143.13
2023-06-18T03:54:39.850Z,94146.50
2023-06-18T03:57:06.559Z,94150.34
2023-06-18T03:59:34.255Z,94150.81
2023-06-18T04:02:02.105Z,94158.38
2023-06-18T04:04:29.119Z,94155.56
2023-06-18T04:06:55.757Z,94153.91
2023-06-18T04:09:22.332Z,94156.47
2023-06-18T04:11:49.390Z,94154.34
2023-06-18T04:14:16.267Z,94144.75
2023-06-18T04:16:43.520Z,94151.09
2023-06-18T04:19:10.590Z,94154.91
2023-06-18T04:21:38.152Z,94147.91
2023-06-18T04:24:05.222Z,94150.13
2023-06-18T04:26:31.932Z,94147.28
2023-06-18T04:28:58.660Z,94137.25
2023-06-18T04:31:25.435Z,94138.38
2023-06-18T04:33:52.531Z,94144.16
2023-06-18T04:36:19.231Z,94146.41
2023-06-18T04:38:50.636Z,94143.28
2023-06-18T04:41:17.247Z,94148.47
2023-06-18T04:43:44.677Z,94139.16
2023-06-18T04:46:11.483Z,94144.66
2023-06-18T04:48:39.125Z,94141.31
2023-06-18T04:51:06.257Z,94140.81
2023-06-18T04:53:33.346Z,94138.94
2023-06-18T04:56:01.124Z,94139.22
2023-06-18T04:58:35.762Z,94137.50
2023-06-18T05:01:03.591Z,94138.56
2023-06-18T05:03:30.518Z,94136.56
2023-06-18T05:05:57.524Z,94137.88
2023-06-18T05:08:24.262Z,94137.78
2023-06-18T05:10:50.949Z,94140.06
2023-06-18T05:13:19.418Z,94135.16
2023-06-18T05:15:46.159Z,94130.59
2023-06-18T05:18:13.067Z,94122.47
2023-06-18T05:20:39.746Z,94122.13
2023-06-18T05:23:07.002Z,94118.25
2023-06-18T05:25:35.798Z,94126.63
2023-06-18T05:28:02.401Z,94123.41
2023-06-18T05:30:32.066Z,94126.16
2023-06-18T05:32:58.903Z,94128.63
2023-06-18T05:35:25.870Z,94126.25
2023-06-18T05:37:56.428Z,94123.63
2023-06-18T05:40:23.377Z,94129.41
2023-06-18T05:42:51.261Z,94127.31
2023-06-18T05:45:18.874Z,94121.84
2023-06-18T05:47:46.722Z,94122.22
2023-06-18T05:50:21.348Z,94121.72
2023-06-18T05:52:48.666Z,94121.50
2023-06-18T05:55:15.510Z,94122.50
2023-06-18T05:57:43.493Z,94127.59
2023-06-18T06:00:11.313Z,94124.47
2023-06-18T06:02:40.901Z,94134.34
2023-06-18T06:05:14.162Z,94136.66
2023-06-18T06:07:40.806Z,94137.31
2023-06-18T06:10:09.390Z,94126.63
2023-06-18T06:12:36.203Z,94132.47
2023-06-18T06:15:03.366Z,94133.09
2023-06-18T06:17:30.278Z,94134.16
2023-06-18T06:19:57.305Z,94129.31
2023-06-18T06:22:23.931Z,94127.59
2023-06-18T06:24:50.580Z,94129.28
2023-06-18T06:27:18.434Z,94127.69
2023-06-18T06:29:45.322Z,94119.44
2023-06-18T06:32:11.970Z,94121.66
2023-06-18T06:34:38.849Z,94115.53
2023-06-18T06:37:06.431Z,94118.88
2023-06-18T06:39:34.079Z,94117.69
2023-06-18T06:42:01.023Z,94115.25
2023-06-18T06:44:30.080Z,94117.56
2023-06-18T06:47:15.461Z,94120.19
2023-06-18T06:50:08.203Z,94116.84
2023-06-18T06:53:01.414Z,94121.78
2023-06-18T06:55:27.999Z,94125.13
2023-06-18T06:57:54.624Z,94128.81
2023-06-18T07:00:22.046Z,94127.41
2023-06-18T07:02:49.124Z,94126.13
2023-06-18T07:05:15.944Z,94123.00
2023-06-18T07:07:42.816Z,94125.41
2023-06-18T07:10:09.728Z,94124.53
2023-06-18T07:12:36.317Z,94119.09
2023-06-18T07:15:03.306Z,94122.91
2023-06-18T07:17:29.926Z,94129.34
2023-06-18T07:19:56.567Z,94124.69
2023-06-18T07:22:23.182Z,94119.84
2023-06-18T07:24:49.754Z,94121.88
2023-06-18T07:27:16.421Z,94114.13
2023-06-18T07:29:43.057Z,94118.78
2023-06-18T07:32:09.698Z,94112.03
2023-06-18T07:34:36.266Z,94119.34
2023-06-18T07:37:02.854Z,94118.09
2023-06-18T07:39:29.485Z,94115.38
2023-06-18T07:41:56.052Z,94119.97
2023-06-18T07:44:22.789Z,94117.88
2023-06-18T07:46:49.454Z,94110.81
2023-06-18T07:49:17.780Z,94106.91
2023-06-18T07:51:44.568Z,94100.19
2023-06-18T07:54:11.237Z,94099.78
2023-06-18T07:56:37.914Z,94105.66
2023-06-18T07:59:04.618Z,94106.69
2023-06-18T08:01:31.530Z,94110.59
2023-06-18T08:03:58.107Z,94104.69
2023-06-18T08:06:26.958Z,94100.50
2023-06-18T08:08:56.764Z,94097.72
2023-06-18T08:11:23.470Z,94091.84
2023-06-18T08:13:50.088Z,94091.03
2023-06-18T08:16:18.230Z,94089.09
2023-06-18T08:18:45.045Z,94093.41
2023-06-18T08:21:12.897Z,94094.50
2023-06-18T08:23:39.697Z,94091.28
2023-06-18T08:26:06.286Z,94092.59
2023-06-18T08:28:32.876Z,94084.59
2023-06-18T08:30:59.447Z,94084.44
2023-06-18T08:33:26.041Z,94085.53
2023-06-18T08:35:52.646Z,94082.22
2023-06-18T08:38:19.302Z,94081.91
2023-06-18T08:41:02.069Z,94078.16
2023-06-18T08:43:33.344Z,94075.22
2023-06-18T08:46:16.726Z,94086.00
2023-06-18T08:49:01.805Z,94083.00
2023-06-18T08:51:28.697Z,94084.09
2023-06-18T08:54:15.125Z,94079.00
2023-06-18T08:56:46.157Z,94073.00
2023-06-18T08:59:14.069Z,94073.06
2023-06-18T09:01:44.696Z,94077.66
2023-06-18T09:04:12.104Z,94066.22
2023-06-18T09:06:39.836Z,94059.19
2023-06-18T09:09:10.066Z,94063.81
2023-06-18T09:11:37.737Z,94065.63
2023-06-18T09:14:04.914Z,94059.28
2023-06-18T09:16:31.804Z,94053.94
2023-06-18T09:18:58.616Z,94052.16
2023-06-18T09:21:44.420Z,94048.09
2023-06-18T09:24:20.478Z,94051.66
2023-06-18T09:27:00.925Z,94045.28
2023-06-18T09:29:33.985Z,94045.28
2023-06-18T09:32:07.574Z,94037.91
2023-06-18T09:34:37.800Z,94051.66
2023-06-18T09:37:06.379Z,94041.97
2023-06-18T09:39:34.206Z,94041.44
2023-06-18T09:42:08.755Z,94045.28
2023-06-18T09:44:35.864Z,94048.84
2023-06-18T09:47:10.235Z,94050.63
2023-06-18T09:49:36.845Z,94042.94
2023-06-18T09:52:06.289Z,94037.78
2023-06-18T09:54:41.695Z,94035.69
2023-06-18T09:57:09.869Z,94027.97
2023-06-18T09:59:36.647Z,94023.56
2023-06-18T10:02:03.268Z,94016.22
2023-06-18T10:04:30.029Z,94024.63
2023-06-18T10:07:07.122Z,94028.94
2023-06-18T10:09:36.888Z,94035.50
2023-06-18T10:12:07.621Z,94029.72
2023-06-18T10:14:35.198Z,94030.16
2023-06-18T10:17:15.607Z,94021.94
2023-06-18T10:19:50.631Z,94016.84
2023-06-18T10:22:19.534Z,94011.09
2023-06-18T10:25:06.675Z,94016.50
2023-06-18T10:27:35.997Z,94022.66
2023-06-18T10:30:03.438Z,94021.91
2023-06-18T10:32:34.703Z,94008.81
2023-06-18T10:35:04.801Z,94004.09
2023-06-18T10:37:33.016Z,94005.84
2023-06-18T10:40:00.706Z,94002.25
2023-06-18T10:42:31.035Z,94008.53
2023-06-18T10:44:59.547Z,94009.56
2023-06-18T10:47:28.663Z,94006.50
2023-06-18T10:50:01.362Z,94001.53
2023-06-18T10:52:32.436Z,93999.09
2023-06-18T10:55:12.682Z,93996.97
2023-06-18T10:57:47.014Z,93988.41
2023-06-18T11:00:30.766Z,93983.75
2023-06-18T11:03:01.740Z,93983.16
2023-06-18T11:05:32.580Z,93974.78
2023-06-18T11:08:04.839Z,93983.31
2023-06-18T11:10:33.560Z,93976.09
2023-06-18T11:13:02.562Z,93974.69
2023-06-18T11:15:29.116Z,93974.53
2023-06-18T11:18:02.161Z,93971.19
2023-06-18T11:20:34.825Z,93973.91
2023-06-18T11:23:02.743Z,93970.94
2023-06-18T11:25:30.441Z,93977.25
2023-06-18T11:28:03.397Z,93971.97
2023-06-18T11:30:34.931Z,93968.19
2023-06-18T11:33:01.946Z,93969.88
2023-06-18T11:35:32.117Z,93972.72
2023-06-18T11:37:58.961Z,93961.50
2023-06-18T11:40:25.775Z,93951.59
2023-06-18T11:42:53.578Z,93962.50
2023-06-18T11:45:22.206Z,93956.28
2023-06-18T11:47:53.232Z,93956.06
2023-06-18T11:50:22.949Z,93960.38
2023-06-18T11:52:49.800Z,93963.19
2023-06-18T11:55:19.283Z,93961.78
2023-06-18T11:57:46.029Z,93960.28
2023-06-18T12:00:15.093Z,93958.22
2023-06-18T12:02:42.719Z,93949.44
2023-06-18T12:05:12.163Z,93945.84
2023-06-18T12:07:44.061Z,93948.47
2023-06-18T12:10:12.492Z,93945.47
2023-06-18T12:12:42.411Z,93945.16
2023-06-18T12:15:23.910Z,93939.28
2023-06-18T12:18:18.484Z,93939.03
2023-06-18T12:20:45.694Z,93935.34
2023-06-18T12:23:13.159Z,93930.94
2023-06-18T12:25:40.449Z,93931.84
2023-06-18T12:28:08.729Z,93926.66
2023-06-18T12:30:40.576Z,93933.13
2023-06-18T12:33:10.007Z,93926.81
2023-06-18T12:35:37.768Z,93910.13
2023-06-18T12:38:09.716Z,93910.19
2023-06-18T12:40:48.075Z,93912.06
2023-06-18T12:43:17.218Z,93911.06
2023-06-18T12:45:48.597Z,93906.97
2023-06-18T12:48:18.199Z,93904.13
2023-06-18T12:50:47.233Z,93904.19
2023-06-18T12:53:22.091Z,93907.19
2023-06-18T12:55:51.995Z,93912.66
2023-06-18T12:58:25.619Z,93905.97
2023-06-18T13:01:01.042Z,93895.22
2023-06-18T13:03:28.396Z,93894.56
2023-06-18T13:05:59.147Z,93904.56
2023-06-18T13:08:25.785Z,93898.31
2023-06-18T13:10:56.350Z,93898.25
2023-06-18T13:13:22.849Z,93900.09
2023-06-18T13:15:55.473Z,93887.06
2023-06-18T13:18:22.422Z,93886.19
2023-06-18T13:20:51.885Z,93874.16
2023-06-18T13:23:18.912Z,93874.28
2023-06-18T13:25:45.821Z,93862.69
2023-06-18T13:28:12.839Z,93873.88
2023-06-18T13:30:40.491Z,93865.94
2023-06-18T13:33:07.283Z,93876.91
2023-06-18T13:35:34.115Z,93886.06
2023-06-18T13:38:01.140Z,93894.22
2023-06-18T13:40:28.906Z,93889.56
2023-06-18T13:42:55.931Z,93891.09
2023-06-18T13:45:22.720Z,93886.22
2023-06-18T13:47:49.820Z,93870.19
2023-06-18T13:50:18.566Z,93862.19
2023-06-18T13:52:47.466Z,93860.88
2023-06-18T13:55:14.333Z,93855.66
2023-06-18T13:57:41.078Z,93857.56
2023-06-18T14:00:09.280Z,93861.59
2023-06-18T14:02:38.140Z,93847.06
2023-06-18T14:05:07.703Z,93856.84
2023-06-18T14:07:34.925Z,93852.19
2023-06-18T14:10:03.281Z,93845.75
2023-06-18T14:12:30.104Z,93844.34
2023-06-18T14:15:00.530Z,93841.72
2023-06-18T14:17:27.616Z,93851.19
2023-06-18T14:19:55.052Z,93848.13
2023-06-18T14:22:22.178Z,93840.03
2023-06-18T14:24:48.980Z,93831.31
2023-06-18T14:27:15.669Z,93840.44
2023-06-18T14:29:42.335Z,93845.84
2023-06-18T14:32:08.972Z,93847.47
2023-06-18T14:34:35.873Z,93855.75
2023-06-18T14:37:02.651Z,93859.59
2023-06-18T14:39:29.300Z,93858.19
2023-06-18T14:41:56.043Z,93853.63
2023-06-18T14:44:25.145Z,93853.25
2023-06-18T14:46:51.968Z,93845.81
2023-06-18T14:49:18.779Z,93846.94
2023-06-18T14:51:45.443Z,93845.84
2023-06-18T14:54:17.118Z,93848.31
2023-06-18T14:56:47.314Z,93850.03
2023-06-18T14:59:14.082Z,93850.47
2023-06-18T15:01:40.867Z,93850.84
2023-06-18T15:04:08.912Z,93843.38
2023-06-18T15:06:36.688Z,93849.50
2023-06-18T15:09:04.732Z,93839.19
2023-06-18T15:11:32.366Z,93845.69
2023-06-18T15:13:59.192Z,93841.56
2023-06-18T15:16:26.180Z,93839.00
2023-06-18T15:18:56.395Z,93837.50
2023-06-18T15:21:23.027Z,93838.81
2023-06-18T15:23:49.721Z,93842.63
2023-06-18T15:26:16.885Z,93851.16
2023-06-18T15:28:48.976Z,93847.16
2023-06-18T15:31:18.848Z,93855.56
2023-06-18T15:33:47.183Z,93855.72
2023-06-18T15:36:18.666Z,93843.84
2023-06-18T15:38:49.822Z,93849.28
2023-06-18T15:41:16.335Z,93851.00
2023-06-18T15:43:42.950Z,93854.78
2023-06-18T15:46:09.728Z,93851.53
2023-06-18T15:48:37.703Z,93855.28
2023-06-18T15:54:18.256Z,93856.88
2023-06-18T15:56:45.899Z,93851.53
2023-06-18T15:59:20.117Z,93862.81
2023-06-18T16:01:49.600Z,93852.59
2023-06-18T16:04:18.939Z,93846.13
2023-06-18T16:06:57.072Z,93862.47
2023-06-18T16:09:35.870Z,93859.56
2023-06-18T16:12:08.214Z,93857.31
2023-06-18T16:14:35.328Z,93855.53
2023-06-18T16:17:09.996Z,93850.63
2023-06-18T16:19:37.883Z,93854.78
2023-06-18T16:22:32.564Z,93858.72
2023-06-18T16:25:10.598Z,93855.91
2023-06-18T16:28:19.941Z,93867.47
2023-06-18T16:30:59.126Z,93867.09
2023-06-18T16:33:30.996Z,93864.28
2023-06-18T16:36:00.553Z,93870.81
2023-06-18T16:38:30.477Z,93866.81
2023-06-18T16:40:59.412Z,93870.28
2023-06-18T16:43:43.415Z,93869.88
2023-06-18T16:46:25.630Z,93869.03
2023-06-18T16:48:52.504Z,93867.75
2023-06-18T16:51:21.834Z,93868.28
2023-06-18T16:53:55.742Z,93878.72
2023-06-18T16:56:23.434Z,93874.38
2023-06-18T16:58:53.286Z,93876.41
2023-06-18T17:01:22.899Z,93887.06
2023-06-18T17:03:53.811Z,93882.97
2023-06-18T17:06:21.979Z,93882.41
2023-06-18T17:08:50.052Z,93887.81
2023-06-18T17:11:41.008Z,93892.75
2023-06-18T17:14:10.955Z,93887.41
2023-06-18T17:16:38.994Z,93892.03
2023-06-18T17:19:09.836Z,93887.69
2023-06-18T17:22:09.369Z,93887.69
2023-06-18T17:24:40.245Z,93890.91
2023-06-18T17:31:07.743Z,93898.59
2023-06-18T17:33:54.089Z,93900.41
2023-06-18T17:46:26.043Z,93951.59
2023-06-18T17:58:49.803Z,93964.22
2023-06-18T18:02:10.159Z,93961.38
2023-06-18T18:05:41.812Z,93959.41
2023-06-18T18:12:57.986Z,93973.84
2023-06-18T18:35:53.670Z,93970.72
2023-06-18T18:38:23.240Z,93971.19
2023-06-18T18:40:50.509Z,93952.56
2023-06-18T18:43:17.655Z,93944.34
2023-06-18T18:45:44.664Z,93925.69
2023-06-18T18:48:11.609Z,93925.28
2023-06-18T18:50:38.577Z,93923.72
2023-06-18T18:53:05.349Z,93926.75
2023-06-18T18:55:32.059Z,93926.41
2023-06-18T18:58:03.188Z,93937.31
2023-06-18T19:00:32.968Z,93931.94
2023-06-18T19:03:03.159Z,93937.91
2023-06-18T19:05:29.928Z,93942.66
2023-06-18T19:07:56.638Z,93940.16
2023-06-18T19:10:23.644Z,93942.38
2023-06-18T19:12:52.327Z,93950.97
2023-06-18T19:15:19.383Z,93953.94
2023-06-18T19:17:46.352Z,93953.59
2023-06-18T19:20:13.886Z,93953.41
2023-06-18T19:22:41.036Z,93963.53
2023-06-18T19:25:08.179Z,93955.16
2023-06-18T19:27:34.910Z,93964.97
2023-06-18T19:30:01.880Z,93967.19
2023-06-18T19:32:28.678Z,93961.09
2023-06-18T19:34:55.574Z,93968.78
2023-06-18T19:37:22.338Z,93978.25
2023-06-18T19:39:49.704Z,93972.59
2023-06-18T19:42:19.385Z,93978.59
2023-06-18T19:44:46.806Z,93977.81
2023-06-18T19:47:13.649Z,93975.59
2023-06-18T19:49:40.663Z,93991.97
2023-06-18T19:52:07.596Z,93989.25
2023-06-18T19:54:37.429Z,93988.66
2023-06-18T19:57:05.736Z,93995.84
2023-06-18T19:59:32.727Z,93998.91
2023-06-18T20:01:59.847Z,94002.28
2023-06-18T20:04:27.228Z,94006.31
2023-06-18T20:06:54.229Z,94006.91
2023-06-18T20:09:21.105Z,94013.03
2023-06-18T20:11:47.772Z,94006.22
2023-06-18T20:14:14.859Z,94003.53
2023-06-18T20:16:41.665Z,94009.97
2023-06-18T20:19:08.605Z,94009.09
2023-06-18T20:21:35.368Z,94011.38
2023-06-18T20:24:02.162Z,94007.66
2023-06-18T20:26:29.124Z,94009.09
2023-06-18T20:28:55.830Z,94013.22
2023-06-18T20:31:22.760Z,94018.50
2023-06-18T20:33:50.673Z,94016.88
2023-06-18T20:36:20.822Z,94021.94
2023-06-18T20:38:48.613Z,94010.22
2023-06-18T20:41:15.733Z,94013.69
2023-06-18T20:43:42.593Z,94018.31
2023-06-18T20:46:10.509Z,94017.31
2023-06-18T20:48:37.809Z,94013.16
2023-06-18T20:51:04.909Z,94019.50
2023-06-18T20:53:35.303Z,94023.06
2023-06-18T20:56:02.707Z,94023.91
2023-06-18T20:58:29.614Z,94027.50
2023-06-18T21:00:56.547Z,94022.94
2023-06-18T21:03:24.758Z,94024.56
2023-06-18T21:05:52.083Z,94023.81
2023-06-18T21:08:19.809Z,94023.50
2023-06-18T21:10:47.061Z,94027.41
2023-06-18T21:13:13.940Z,94029.75
2023-06-18T21:15:40.709Z,94028.53
2023-06-18T21:18:07.800Z,94029.94
2023-06-18T21:20:34.670Z,94032.16
2023-06-18T21:23:01.424Z,94033.38
2023-06-18T21:25:28.399Z,94029.22
2023-06-18T21:27:57.320Z,94031.84
2023-06-18T21:30:25.609Z,94028.94
2023-06-18T21:32:53.652Z,94029.88
2023-06-18T21:35:20.970Z,94025.69
2023-06-18T21:37:47.702Z,94037.41
2023-06-18T21:40:16.005Z,94042.72
2023-06-18T21:42:46.254Z,94042.56
2023-06-18T21:45:13.524Z,94034.72
2023-06-18T21:47:41.022Z,94044.44
2023-06-18T21:50:09.047Z,94048.91
2023-06-18T21:52:36.536Z,94045.34
2023-06-18T21:55:03.486Z,94044.56
2023-06-18T21:57:30.294Z,94036.72
2023-06-18T21:59:57.159Z,94045.06
2023-06-18T22:02:24.147Z,94050.44
2023-06-18T22:04:50.949Z,94051.06
2023-06-18T22:07:18.038Z,94045.50
2023-06-18T22:09:45.061Z,94045.34
2023-06-18T22:12:12.412Z,94047.97
2023-06-18T22:14:39.169Z,94040.69
2023-06-18T22:17:06.265Z,94046.41
2023-06-18T22:19:33.570Z,94041.91
2023-06-18T22:22:00.455Z,94025.22
2023-06-18T22:24:27.386Z,94028.31
2023-06-18T22:27:04.047Z,94037.16
2023-06-18T22:29:30.783Z,94036.94
2023-06-18T22:31:57.573Z,94038.59
2023-06-18T22:34:36.554Z,94042.44
2023-06-18T22:37:07.736Z,94037.34
2023-06-18T22:39:34.444Z,94041.06
2023-06-18T22:42:01.276Z,94036.41
2023-06-18T22:44:27.930Z,94033.97
2023-06-18T22:46:54.646Z,94042.56
2023-06-18T22:49:21.391Z,94041.97
2023-06-18T22:51:55.310Z,94033.63
2023-06-18T22:54:22.248Z,94041.97
2023-06-18T22:56:48.986Z,94034.88
2023-06-18T22:59:15.853Z,94040.56
2023-06-18T23:01:42.775Z,94040.22
2023-06-18T23:04:09.597Z,94040.06
2023-06-18T23:06:36.345Z,94049.13
2023-06-18T23:09:04.152Z,94044.66
2023-06-18T23:11:30.839Z,94049.28
2023-06-18T23:13:57.648Z,94050.66
2023-06-18T23:16:24.353Z,94047.88
2023-06-18T23:18:52.308Z,94052.97
2023-06-18T23:21:19.262Z,94061.44
2023-06-18T23:23:46.024Z,94060.38
2023-06-18T23:26:12.928Z,94056.53
2023-06-18T23:28:39.756Z,94061.13
2023-06-18T23:31:07.026Z,94058.63
2023-06-18T23:33:33.741Z,94066.44
2023-06-18T23:36:03.214Z,94070.00
2023-06-18T23:38:29.974Z,94066.28
2023-06-18T23:40:56.966Z,94069.66
2023-06-18T23:43:23.842Z,94070.69
2023-06-18T23:45:50.578Z,94068.38
2023-06-18T23:48:17.344Z,94063.78
2023-06-18T23:50:44.344Z,94069.84
2023-06-18T23:53:11.069Z,94069.66
2023-06-18T23:55:38.754Z,94072.84
2023-06-18T23:58:05.469Z,94061.69
